createdAt,value
2022-12-06T00:00:18.367Z,6.6
2022-12-06T00:10:24.443Z,6.6
2022-12-06T00:20:30.450Z,6.6
2022-12-06T00:30:36.537Z,6.6
2022-12-06T00:40:42.536Z,6.6
2022-12-06T00:50:48.611Z,6.6
2022-12-06T01:00:54.656Z,6.6
2022-12-06T01:11:00.692Z,6.6
2022-12-06T01:21:06.732Z,6.6
2022-12-06T01:31:12.857Z,6.6
2022-12-06T01:41:18.791Z,6.6
2022-12-06T01:51:24.871Z,6.6
2022-12-06T02:01:30.919Z,6.6
2022-12-06T02:11:36.967Z,6.6
2022-12-06T02:21:42.969Z,6.6
2022-12-06T02:31:49.039Z,6.6
2022-12-06T02:41:55.060Z,6.6
2022-12-06T02:52:01.127Z,6.5
2022-12-06T03:02:07.212Z,6.5
2022-12-06T03:12:13.228Z,6.6
2022-12-06T03:22:19.248Z,6.5
2022-12-06T03:32:25.303Z,6.6
2022-12-06T03:42:31.333Z,6.6
2022-12-06T03:52:37.402Z,6.6
2022-12-06T04:02:43.431Z,6.6
2022-12-06T04:12:49.514Z,6.6
2022-12-06T04:22:55.536Z,6.6
2022-12-06T04:33:01.585Z,6.6
2022-12-06T04:43:07.655Z,6.6
2022-12-06T04:53:13.697Z,6.6
2022-12-06T05:03:19.752Z,6.6
2022-12-06T05:13:25.770Z,6.7
2022-12-06T05:23:31.802Z,6.7
2022-12-06T05:33:37.852Z,6.7
2022-12-06T05:43:43.882Z,6.7
2022-12-06T05:53:49.960Z,6.7
2022-12-06T06:03:55.974Z,6.7
2022-12-06T06:14:02.025Z,6.7
2022-12-06T06:24:08.041Z,6.7
2022-12-06T06:34:14.150Z,6.7
2022-12-06T06:44:20.133Z,6.8
2022-12-06T06:54:26.232Z,6.8
2022-12-06T07:04:32.221Z,6.9
2022-12-06T07:14:38.301Z,6.9
2022-12-06T07:24:49.165Z,6.9
2022-12-06T07:34:50.555Z,6.9
2022-12-06T07:45:01.318Z,6.9
2022-12-06T07:55:02.473Z,6.9
2022-12-06T08:05:08.511Z,7
2022-12-06T08:15:14.616Z,7.1
2022-12-06T08:25:20.608Z,7
2022-12-06T08:35:26.666Z,7.1
2022-12-06T08:45:32.688Z,7.1
2022-12-06T08:55:38.770Z,7.3
2022-12-06T09:05:44.791Z,7.8
2022-12-06T09:15:50.896Z,7.8
2022-12-06T09:25:56.860Z,7.7
2022-12-06T09:36:02.929Z,7.7
2022-12-06T09:46:08.997Z,7.6
2022-12-06T09:56:15.017Z,7.4
2022-12-06T10:06:21.031Z,7.3
2022-12-06T10:16:27.164Z,7.2
2022-12-06T10:26:33.118Z,7.2
2022-12-06T10:36:39.186Z,7.2
2022-12-06T10:46:45.342Z,7.4
2022-12-06T10:56:51.272Z,7.5
2022-12-06T11:06:57.273Z,7.6
2022-12-06T11:17:03.361Z,6.8
2022-12-06T11:27:09.390Z,6.8
2022-12-06T11:37:15.444Z,7.2
2022-12-06T11:47:21.468Z,7.3
2022-12-06T11:57:27.541Z,7.3
2022-12-06T12:07:33.665Z,7.4
2022-12-06T12:17:39.635Z,7.4
2022-12-06T12:27:45.640Z,7.4
2022-12-06T12:37:51.711Z,7.4
2022-12-06T12:47:57.733Z,7.4
2022-12-06T12:58:03.815Z,7.4
2022-12-06T13:08:10.998Z,7.4
2022-12-06T13:18:17.014Z,7.3
2022-12-06T13:28:23.049Z,7.4
2022-12-06T13:38:29.099Z,7.5
2022-12-06T13:48:35.123Z,7.5
2022-12-06T13:58:41.185Z,7.5
2022-12-06T14:08:47.230Z,7.5
2022-12-06T14:18:53.301Z,7.5
2022-12-06T14:28:59.295Z,7.5
2022-12-06T14:39:05.357Z,7.5
2022-12-06T14:49:11.379Z,7.5
2022-12-06T14:59:33.412Z,7.5
2022-12-06T15:09:23.462Z,7.5
2022-12-06T15:19:29.548Z,7.4
2022-12-06T15:29:35.571Z,7.4
2022-12-06T15:39:41.655Z,7.4
2022-12-06T15:49:47.656Z,7.4
2022-12-06T15:59:53.717Z,7.4
2022-12-06T16:09:59.724Z,7.4
2022-12-06T16:20:05.807Z,7.3
2022-12-06T16:30:11.828Z,7.3
2022-12-06T16:40:18.022Z,7.3
2022-12-06T16:50:23.907Z,7.3
2022-12-06T17:00:30.033Z,7.3
2022-12-06T17:10:35.999Z,7.3
2022-12-06T17:20:42.082Z,7.3
2022-12-06T17:30:51.207Z,7.3
2022-12-06T17:40:54.161Z,7.3
2022-12-06T17:51:00.190Z,7.3
2022-12-06T18:01:06.306Z,7.3
2022-12-06T18:11:12.286Z,7.3
2022-12-06T18:21:18.338Z,7.3
2022-12-06T18:31:24.419Z,7.3
2022-12-06T18:41:30.412Z,7.3
2022-12-06T18:51:36.478Z,7.3
2022-12-06T19:01:42.646Z,7.3
2022-12-06T19:11:48.554Z,7.3
2022-12-06T19:21:54.628Z,7.2
2022-12-06T19:32:00.644Z,7.2
2022-12-06T19:42:06.705Z,7.2
2022-12-06T19:52:12.742Z,7.2
2022-12-06T20:02:19.176Z,7.2
2022-12-06T20:12:24.816Z,7.2
2022-12-06T20:22:30.869Z,7.2
2022-12-06T20:32:36.931Z,7.2
2022-12-06T20:42:42.980Z,7.2
2022-12-06T20:52:49.003Z,7.2
2022-12-06T21:02:55.160Z,7.2
2022-12-06T21:13:05.836Z,7.2
2022-12-06T21:23:07.151Z,7.2
2022-12-06T21:33:13.191Z,7.2
2022-12-06T21:43:19.268Z,7.1
2022-12-06T21:53:25.364Z,7.1
2022-12-06T22:03:31.432Z,7.1
2022-12-06T22:13:37.363Z,7.1
2022-12-06T22:23:43.436Z,7.1
2022-12-06T22:33:49.460Z,7.2
2022-12-06T22:43:55.512Z,7.2
2022-12-06T22:54:01.527Z,7.2
2022-12-06T23:04:07.683Z,7.2
2022-12-06T23:14:13.627Z,7.2
2022-12-06T23:24:19.680Z,7.2
2022-12-06T23:34:25.702Z,7.2
2022-12-06T23:44:31.779Z,7.2
2022-12-06T23:54:37.788Z,7.2
